createdAt,value
2018-07-05T00:00:04.718Z,0
2018-07-05T00:01:14.804Z,0
2018-07-05T00:02:24.936Z,0
2018-07-05T00:03:34.754Z,0
2018-07-05T00:04:44.550Z,0
2018-07-05T00:05:54.633Z,0
2018-07-05T00:07:04.197Z,0
2018-07-05T00:08:14.322Z,0
2018-07-05T00:09:24.407Z,0
2018-07-05T00:10:34.475Z,0
2018-07-05T00:11:44.271Z,0
2018-07-05T00:12:54.358Z,0
2018-07-05T00:14:04.213Z,0
2018-07-05T00:15:14.330Z,0
2018-07-05T00:16:24.127Z,0
2018-07-05T00:17:34.181Z,0
2018-07-05T00:18:44.233Z,0
2018-07-05T00:19:54.094Z,0
2018-07-05T00:21:04.153Z,0
2018-07-05T00:22:13.953Z,0
2018-07-05T00:23:24.038Z,0
2018-07-05T00:24:34.117Z,0
2018-07-05T00:25:44.231Z,0
2018-07-05T00:26:54.312Z,0
2018-07-05T00:28:04.118Z,0
2018-07-05T00:29:14.199Z,0
2018-07-05T00:30:23.986Z,0
2018-07-05T00:31:33.817Z,0
2018-07-05T00:32:43.891Z,0
2018-07-05T00:33:53.701Z,0
2018-07-05T00:35:03.518Z,0
2018-07-05T00:36:13.313Z,0
2018-07-05T00:37:23.452Z,0
2018-07-05T00:38:33.533Z,0
2018-07-05T00:39:43.339Z,0
2018-07-05T00:40:53.406Z,0
2018-07-05T00:42:03.480Z,0
2018-07-05T00:43:13.330Z,0
2018-07-05T00:44:23.131Z,0
2018-07-05T00:45:32.926Z,0
2018-07-05T00:46:42.724Z,0
2018-07-05T00:47:52.801Z,0
2018-07-05T00:49:02.785Z,0
2018-07-05T00:50:12.034Z,0
2018-07-05T00:51:21.826Z,0
2018-07-05T00:52:31.902Z,0
2018-07-05T00:53:41.439Z,0
2018-07-05T00:54:51.022Z,0
2018-07-05T00:56:00.818Z,0
2018-07-05T00:57:10.892Z,0
2018-07-05T00:58:20.952Z,0
2018-07-05T00:59:30.481Z,0
2018-07-05T01:00:40.330Z,0
2018-07-05T01:01:50.132Z,0
2018-07-05T01:03:00.224Z,0
2018-07-05T01:04:10.022Z,0
2018-07-05T01:05:19.860Z,0
2018-07-05T01:06:29.975Z,0
2018-07-05T01:07:39.775Z,0
2018-07-05T01:08:49.591Z,0
2018-07-05T01:09:59.399Z,0
2018-07-05T01:11:09.467Z,0
2018-07-05T01:12:19.579Z,0
2018-07-05T01:13:29.394Z,0
2018-07-05T01:14:39.459Z,0
2018-07-05T01:15:48.994Z,0
2018-07-05T01:16:59.077Z,0
2018-07-05T01:18:09.189Z,0
2018-07-05T01:19:19.265Z,0
2018-07-05T01:20:29.066Z,0
2018-07-05T01:21:38.857Z,0
2018-07-05T01:22:48.670Z,0
2018-07-05T01:23:58.778Z,0
2018-07-05T01:25:08.305Z,0
2018-07-05T01:26:18.370Z,0
2018-07-05T01:27:28.160Z,0
2018-07-05T01:28:37.947Z,0
2018-07-05T01:29:47.785Z,0
2018-07-05T01:30:57.875Z,0
2018-07-05T01:32:07.946Z,0
2018-07-05T01:33:17.480Z,0
2018-07-05T01:34:27.555Z,0
2018-07-05T01:35:37.698Z,0
2018-07-05T01:36:47.762Z,0
2018-07-05T01:37:57.826Z,5
2018-07-05T01:39:07.627Z,5
2018-07-05T01:40:17.698Z,5
2018-07-05T01:41:27.566Z,5
2018-07-05T01:42:37.363Z,5
2018-07-05T01:43:46.889Z,5
2018-07-05T01:44:56.949Z,5
2018-07-05T01:46:07.033Z,5
2018-07-05T01:47:17.145Z,5
2018-07-05T01:48:26.952Z,5
2018-07-05T01:49:37.035Z,5
2018-07-05T01:50:46.828Z,5
2018-07-05T01:51:56.361Z,5
2018-07-05T01:53:06.215Z,10
2018-07-05T01:54:16.016Z,10
2018-07-05T01:55:26.077Z,10
2018-07-05T01:56:35.871Z,10
2018-07-05T01:57:45.949Z,10
2018-07-05T01:58:56.075Z,10
2018-07-05T02:00:05.874Z,10
2018-07-05T02:01:15.946Z,10
2018-07-05T02:02:26.030Z,10
2018-07-05T02:03:36.102Z,10
2018-07-05T02:04:45.955Z,15
2018-07-05T02:05:56.037Z,15
2018-07-05T02:07:06.105Z,15
2018-07-05T02:08:15.644Z,15
2018-07-05T02:09:25.733Z,15
2018-07-05T02:10:35.853Z,15
2018-07-05T02:11:45.653Z,15
2018-07-05T02:12:55.727Z,20
2018-07-05T02:14:05.531Z,20
2018-07-05T02:15:15.578Z,20
2018-07-05T02:16:25.438Z,20
2018-07-05T02:17:35.251Z,25
2018-07-05T02:18:45.329Z,25
2018-07-05T02:19:55.399Z,25
2018-07-05T02:21:05.488Z,30
2018-07-05T02:22:15.605Z,30
2018-07-05T02:23:25.680Z,30
2018-07-05T02:24:35.472Z,30
2018-07-05T02:25:45.283Z,30
2018-07-05T02:26:55.083Z,30
2018-07-05T02:28:05.215Z,35
2018-07-05T02:29:15.024Z,35
2018-07-05T02:30:25.095Z,35
2018-07-05T02:31:35.182Z,30
2018-07-05T02:32:44.996Z,30
2018-07-05T02:33:55.114Z,35
2018-07-05T02:35:04.907Z,35
2018-07-05T02:36:14.987Z,35
2018-07-05T02:37:24.780Z,35
2018-07-05T02:38:34.848Z,35
2018-07-05T02:39:44.699Z,35
2018-07-05T02:40:54.769Z,40
2018-07-05T02:42:04.843Z,40
2018-07-05T02:43:14.627Z,45
2018-07-05T02:44:24.433Z,45
2018-07-05T02:45:34.567Z,45
2018-07-05T02:46:44.638Z,45
2018-07-05T02:47:54.704Z,50
2018-07-05T02:49:04.804Z,50
2018-07-05T02:50:14.599Z,50
2018-07-05T02:51:24.456Z,50
2018-07-05T02:52:33.996Z,55
2018-07-05T02:53:44.106Z,55
2018-07-05T02:54:54.181Z,55
2018-07-05T02:56:03.728Z,55
2018-07-05T02:57:13.839Z,60
2018-07-05T02:58:23.907Z,60
2018-07-05T02:59:33.446Z,60
2018-07-05T03:03:38.106Z,65
2018-07-05T03:04:48.179Z,65
2018-07-05T03:05:58.250Z,65
2018-07-05T03:07:08.120Z,70
2018-07-05T03:08:17.919Z,70
2018-07-05T03:09:27.767Z,75
2018-07-05T03:10:37.586Z,70
2018-07-05T03:11:47.123Z,75
2018-07-05T03:12:57.205Z,75
2018-07-05T03:14:07.024Z,70
2018-07-05T03:15:17.160Z,75
2018-07-05T03:16:26.987Z,75
2018-07-05T03:17:36.794Z,75
2018-07-05T03:18:46.599Z,80
2018-07-05T03:19:56.683Z,80
2018-07-05T03:21:06.549Z,85
2018-07-05T03:22:16.367Z,85
2018-07-05T03:23:26.191Z,85
2018-07-05T03:24:35.991Z,85
2018-07-05T03:25:46.069Z,85
2018-07-05T03:26:55.911Z,85
2018-07-05T03:28:05.992Z,85
2018-07-05T03:29:15.796Z,85
2018-07-05T03:30:25.898Z,85
2018-07-05T03:31:35.974Z,90
2018-07-05T03:32:46.093Z,90
2018-07-05T03:33:55.897Z,90
2018-07-05T03:35:05.967Z,90
2018-07-05T03:36:16.056Z,95
2018-07-05T03:37:26.119Z,95
2018-07-05T03:38:36.231Z,95
2018-07-05T03:39:46.304Z,95
2018-07-05T03:40:56.381Z,95
2018-07-05T03:42:06.507Z,100
2018-07-05T03:43:16.578Z,100
2018-07-05T03:44:26.729Z,100
2018-07-05T03:45:36.808Z,100
2018-07-05T03:46:46.864Z,105
2018-07-05T03:47:56.652Z,105
2018-07-05T03:49:06.178Z,105
2018-07-05T03:50:16.043Z,105
2018-07-05T03:51:26.117Z,105
2018-07-05T03:52:35.653Z,110
2018-07-05T03:53:45.728Z,110
2018-07-05T03:54:55.808Z,110
2018-07-05T03:56:05.115Z,110
2018-07-05T03:57:14.385Z,110
2018-07-05T03:58:24.447Z,115
2018-07-05T03:59:34.231Z,115
2018-07-05T04:00:44.307Z,115
2018-07-05T04:01:53.892Z,115
2018-07-05T04:03:03.977Z,115
2018-07-05T04:04:14.034Z,115
2018-07-05T04:05:24.106Z,120
2018-07-05T04:06:34.172Z,115
2018-07-05T04:07:44.297Z,115
2018-07-05T04:08:54.368Z,115
2018-07-05T04:10:03.966Z,120
2018-07-05T04:11:13.229Z,120
2018-07-05T04:12:23.292Z,120
2018-07-05T04:13:33.424Z,120
2018-07-05T04:14:43.222Z,120
2018-07-05T04:15:53.318Z,120
2018-07-05T04:17:02.856Z,125
2018-07-05T04:18:12.395Z,125
2018-07-05T04:19:22.258Z,125
2018-07-05T04:20:31.788Z,125
2018-07-05T04:21:41.866Z,125
2018-07-05T04:22:51.659Z,125
2018-07-05T04:24:01.559Z,130
2018-07-05T04:25:11.638Z,130
2018-07-05T04:26:21.453Z,130
2018-07-05T04:27:31.273Z,130
2018-07-05T04:28:41.073Z,130
2018-07-05T04:29:51.144Z,130
2018-07-05T04:31:00.717Z,135
2018-07-05T04:32:09.983Z,135
2018-07-05T04:33:20.046Z,135
2018-07-05T04:34:29.588Z,135
2018-07-05T04:35:39.655Z,135
2018-07-05T04:36:49.767Z,135
2018-07-05T04:37:59.838Z,140
2018-07-05T04:39:09.361Z,140
2018-07-05T04:40:19.437Z,140
2018-07-05T04:41:29.240Z,140
2018-07-05T04:42:39.667Z,140
2018-07-05T04:43:49.779Z,140
2018-07-05T04:44:59.578Z,140
2018-07-05T04:46:08.833Z,145
2018-07-05T04:47:18.894Z,145
2018-07-05T04:48:28.731Z,145
2018-07-05T04:49:38.539Z,145
2018-07-05T04:50:48.619Z,145
2018-07-05T04:51:58.137Z,145
2018-07-05T04:53:08.216Z,145
2018-07-05T04:54:18.072Z,145
2018-07-05T04:55:27.729Z,145
2018-07-05T04:56:37.557Z,145
2018-07-05T04:57:47.078Z,145
2018-07-05T04:58:57.160Z,145
2018-07-05T05:00:07.282Z,145
2018-07-05T05:01:17.358Z,145
2018-07-05T05:02:27.639Z,145
2018-07-05T05:03:37.247Z,145
2018-07-05T05:04:47.304Z,145
2018-07-05T05:05:57.434Z,150
2018-07-05T05:07:07.221Z,150
2018-07-05T05:08:17.297Z,150
2018-07-05T05:09:26.828Z,150
2018-07-05T05:10:36.089Z,150
2018-07-05T05:11:46.215Z,150
2018-07-05T05:12:56.286Z,150
2018-07-05T05:14:06.369Z,150
2018-07-05T05:15:16.435Z,150
2018-07-05T05:16:26.235Z,150
2018-07-05T05:17:36.366Z,155
2018-07-05T05:18:46.438Z,155
2018-07-05T05:19:56.523Z,155
2018-07-05T05:21:06.328Z,155
2018-07-05T05:22:16.131Z,155
2018-07-05T05:23:25.977Z,155
2018-07-05T05:24:35.525Z,155
2018-07-05T05:25:45.596Z,155
2018-07-05T05:26:55.403Z,155
2018-07-05T05:28:05.208Z,155
2018-07-05T05:29:15.322Z,160
2018-07-05T05:30:25.382Z,160
2018-07-05T05:31:35.488Z,160
2018-07-05T05:32:45.268Z,160
2018-07-05T05:33:55.333Z,160
2018-07-05T05:35:04.635Z,160
2018-07-05T05:36:14.171Z,160
2018-07-05T05:37:23.987Z,160
2018-07-05T05:38:33.238Z,160
2018-07-05T05:39:43.044Z,160
2018-07-05T05:40:52.906Z,160
2018-07-05T05:42:02.972Z,160
2018-07-05T05:43:12.508Z,160
2018-07-05T05:44:22.580Z,160
2018-07-05T05:45:32.665Z,165
2018-07-05T05:46:42.525Z,165
2018-07-05T05:47:52.526Z,165
2018-07-05T05:49:02.592Z,165
2018-07-05T05:50:12.115Z,165
2018-07-05T05:51:21.925Z,165
2018-07-05T05:52:31.780Z,165
2018-07-05T05:53:41.574Z,165
2018-07-05T05:54:51.651Z,165
2018-07-05T05:56:01.741Z,165
2018-07-05T05:57:11.007Z,165
2018-07-05T05:58:20.876Z,165
2018-07-05T05:59:30.418Z,165
2018-07-05T06:00:40.514Z,165
2018-07-05T06:01:50.711Z,170
2018-07-05T06:03:00.513Z,170
2018-07-05T06:04:10.645Z,170
2018-07-05T06:05:20.735Z,170
2018-07-05T06:06:30.798Z,170
2018-07-05T06:07:40.612Z,170
2018-07-05T06:08:50.696Z,170
2018-07-05T06:10:00.821Z,170
2018-07-05T06:11:10.336Z,170
2018-07-05T06:12:20.411Z,170
2018-07-05T06:13:29.940Z,170
2018-07-05T06:14:39.747Z,170
2018-07-05T06:15:49.341Z,170
2018-07-05T06:16:59.212Z,175
2018-07-05T06:18:09.021Z,175
2018-07-05T06:19:19.096Z,170
2018-07-05T06:20:29.165Z,175
2018-07-05T06:21:39.014Z,175
2018-07-05T06:22:48.808Z,175
2018-07-05T06:23:58.881Z,175
2018-07-05T06:25:08.683Z,175
2018-07-05T06:26:18.226Z,175
2018-07-05T06:27:28.077Z,175
2018-07-05T06:28:37.880Z,175
2018-07-05T06:29:47.402Z,175
2018-07-05T06:30:57.466Z,175
2018-07-05T06:32:07.547Z,175
2018-07-05T06:33:17.411Z,175
2018-07-05T06:34:27.486Z,180
2018-07-05T06:35:37.562Z,175
2018-07-05T06:36:47.627Z,180
2018-07-05T06:37:57.433Z,180
2018-07-05T06:39:07.520Z,180
2018-07-05T06:40:17.596Z,180
2018-07-05T06:41:27.702Z,180
2018-07-05T06:42:37.784Z,180
2018-07-05T06:43:47.302Z,180
2018-07-05T06:44:57.445Z,180
2018-07-05T06:46:06.975Z,180
2018-07-05T06:47:16.781Z,180
2018-07-05T06:48:26.865Z,180
2018-07-05T06:49:37.287Z,180
2018-07-05T06:50:47.442Z,180
2018-07-05T06:51:57.252Z,185
2018-07-05T06:53:07.582Z,180
2018-07-05T06:54:17.490Z,180
2018-07-05T06:55:27.283Z,185
2018-07-05T06:56:37.416Z,185
2018-07-05T06:57:47.490Z,180
2018-07-05T06:58:57.581Z,180
2018-07-05T07:00:07.372Z,180
2018-07-05T07:01:17.194Z,180
2018-07-05T07:02:26.770Z,180
2018-07-05T07:03:36.851Z,180
2018-07-05T07:04:46.921Z,180
2018-07-05T07:05:56.454Z,190
2018-07-05T07:07:06.286Z,185
2018-07-05T07:08:16.147Z,185
2018-07-05T07:09:26.218Z,185
2018-07-05T07:10:35.752Z,190
2018-07-05T07:11:45.822Z,190
2018-07-05T07:12:55.361Z,185
2018-07-05T07:14:05.475Z,185
2018-07-05T07:15:15.282Z,190
2018-07-05T07:16:25.375Z,185
2018-07-05T07:17:35.457Z,185
2018-07-05T07:18:45.530Z,185
2018-07-05T07:19:55.635Z,185
2018-07-05T07:21:05.738Z,185
2018-07-05T07:22:15.532Z,185
2018-07-05T07:23:25.058Z,190
2018-07-05T07:24:34.841Z,190
2018-07-05T07:25:44.977Z,190
2018-07-05T07:26:54.784Z,190
2018-07-05T07:28:04.607Z,195
2018-07-05T07:29:14.694Z,195
2018-07-05T07:30:24.232Z,195
2018-07-05T07:31:34.686Z,190
2018-07-05T07:32:44.771Z,190
2018-07-05T07:33:54.888Z,190
2018-07-05T07:35:04.698Z,190
2018-07-05T07:36:14.244Z,190
2018-07-05T07:37:24.526Z,190
2018-07-05T07:38:34.672Z,190
2018-07-05T07:39:44.756Z,190
2018-07-05T07:40:54.842Z,190
2018-07-05T07:42:04.369Z,195
2018-07-05T07:43:14.241Z,195
2018-07-05T07:44:24.034Z,195
2018-07-05T07:45:34.688Z,195
2018-07-05T07:46:44.321Z,195
2018-07-05T07:47:54.108Z,195
2018-07-05T07:49:03.406Z,195
2018-07-05T07:50:13.202Z,195
2018-07-05T07:51:23.522Z,195
2018-07-05T07:52:33.027Z,195
2018-07-05T07:53:42.285Z,195
2018-07-05T07:54:52.392Z,195
2018-07-05T07:56:02.458Z,195
2018-07-05T07:57:12.270Z,200
2018-07-05T07:58:22.763Z,200
2018-07-05T07:59:32.579Z,200
2018-07-05T08:00:42.438Z,200
2018-07-05T08:01:51.964Z,200
2018-07-05T08:03:02.036Z,200
2018-07-05T08:04:11.860Z,200
2018-07-05T08:05:21.398Z,200
2018-07-05T08:06:31.524Z,205
2018-07-05T08:07:41.331Z,205
2018-07-05T08:08:51.139Z,205
2018-07-05T08:10:01.241Z,205
2018-07-05T08:11:11.058Z,205
2018-07-05T08:12:21.225Z,205
2018-07-05T08:13:30.210Z,205
2018-07-05T08:14:40.268Z,205
2018-07-05T08:15:50.354Z,205
2018-07-05T08:16:59.891Z,210
2018-07-05T08:18:09.498Z,210
2018-07-05T08:19:19.571Z,210
2018-07-05T08:20:29.885Z,210
2018-07-05T08:21:40.024Z,210
2018-07-05T08:22:49.848Z,210
2018-07-05T08:23:59.971Z,210
2018-07-05T08:25:09.780Z,210
2018-07-05T08:26:19.893Z,210
2018-07-05T08:27:29.704Z,215
2018-07-05T08:28:39.523Z,215
2018-07-05T08:29:49.653Z,215
2018-07-05T08:30:59.709Z,215
2018-07-05T08:32:09.243Z,220
2018-07-05T08:33:19.053Z,215
2018-07-05T08:34:29.128Z,215
2018-07-05T08:35:39.268Z,215
2018-07-05T08:36:49.347Z,215
2018-07-05T08:37:59.619Z,220
2018-07-05T08:39:09.413Z,220
2018-07-05T08:40:19.489Z,220
2018-07-05T08:41:29.337Z,220
2018-07-05T08:42:39.418Z,220
2018-07-05T08:43:49.498Z,220
2018-07-05T08:44:59.591Z,220
2018-07-05T08:46:09.392Z,220
2018-07-05T08:47:19.526Z,220
2018-07-05T08:48:29.591Z,220
2018-07-05T08:49:39.127Z,220
2018-07-05T08:50:49.187Z,225
2018-07-05T08:51:58.991Z,220
2018-07-05T08:53:08.844Z,225
2018-07-05T08:54:18.907Z,225
2018-07-05T08:55:28.716Z,225
2018-07-05T08:56:38.815Z,225
2018-07-05T08:57:48.877Z,225
2018-07-05T08:58:59.981Z,225
2018-07-05T09:00:09.774Z,225
2018-07-05T09:01:19.873Z,225
2018-07-05T09:02:29.957Z,230
2018-07-05T09:03:40.040Z,230
2018-07-05T09:04:50.147Z,230
2018-07-05T09:06:00.223Z,230
2018-07-05T09:07:42.123Z,230
2018-07-05T09:08:52.202Z,230
2018-07-05T09:10:02.352Z,235
2018-07-05T09:11:12.164Z,235
2018-07-05T09:12:22.242Z,235
2018-07-05T09:13:32.314Z,235
2018-07-05T09:14:42.117Z,235
2018-07-05T09:15:51.980Z,235
2018-07-05T09:17:01.513Z,235
2018-07-05T09:18:12.235Z,235
2018-07-05T09:19:21.695Z,235
2018-07-05T09:20:31.513Z,240
2018-07-05T09:21:41.641Z,240
2018-07-05T09:22:51.166Z,240
2018-07-05T09:24:00.968Z,240
2018-07-05T09:25:11.052Z,240
2018-07-05T09:26:20.864Z,240
2018-07-05T09:27:30.729Z,240
2018-07-05T09:28:40.526Z,240
2018-07-05T09:29:50.067Z,240
2018-07-05T09:30:59.869Z,240
2018-07-05T09:32:09.435Z,240
2018-07-05T09:33:19.564Z,240
2018-07-05T09:34:29.370Z,240
2018-07-05T09:35:39.444Z,245
2018-07-05T09:36:49.521Z,245
2018-07-05T09:37:59.063Z,245
2018-07-05T09:39:08.652Z,245
2018-07-05T09:40:18.466Z,245
2018-07-05T09:41:28.014Z,245
2018-07-05T09:42:38.093Z,245
2018-07-05T09:43:48.167Z,245
2018-07-05T09:44:58.020Z,245
2018-07-05T09:46:07.840Z,245
2018-07-05T09:47:17.648Z,245
2018-07-05T09:48:27.451Z,255
2018-07-05T09:49:37.514Z,250
2018-07-05T09:50:47.094Z,250
2018-07-05T09:51:57.175Z,250
2018-07-05T09:53:06.708Z,250
2018-07-05T09:54:16.515Z,250
2018-07-05T09:55:26.590Z,250
2018-07-05T09:56:36.448Z,250
2018-07-05T09:57:46.523Z,255
2018-07-05T09:58:56.327Z,255
2018-07-05T10:00:06.421Z,255
2018-07-05T10:01:16.234Z,255
2018-07-05T10:02:26.355Z,255
2018-07-05T10:03:36.664Z,255
2018-07-05T10:04:46.547Z,255
2018-07-05T10:05:56.628Z,260
2018-07-05T10:07:06.427Z,260
2018-07-05T10:08:16.291Z,265
2018-07-05T10:09:25.626Z,260
2018-07-05T10:10:35.745Z,260
2018-07-05T10:11:45.286Z,260
2018-07-05T10:12:54.861Z,260
2018-07-05T10:14:04.726Z,265
2018-07-05T10:15:14.531Z,265
2018-07-05T10:16:24.627Z,265
2018-07-05T10:17:34.687Z,265
2018-07-05T10:18:44.506Z,265
2018-07-05T10:19:54.376Z,265
2018-07-05T10:21:04.181Z,265
2018-07-05T10:22:14.000Z,270
2018-07-05T10:23:23.811Z,270
2018-07-05T10:24:33.362Z,270
2018-07-05T10:25:42.963Z,270
2018-07-05T10:26:52.921Z,270
2018-07-05T10:28:02.727Z,270
2018-07-05T10:29:12.821Z,270
2018-07-05T10:30:22.915Z,270
2018-07-05T10:31:32.494Z,275
2018-07-05T10:32:42.588Z,275
2018-07-05T10:33:52.410Z,275
2018-07-05T10:35:02.207Z,275
2018-07-05T10:36:11.476Z,275
2018-07-05T10:37:21.340Z,275
2018-07-05T10:38:30.871Z,280
2018-07-05T10:39:41.159Z,280
2018-07-05T10:40:51.254Z,280
2018-07-05T10:42:01.055Z,280
2018-07-05T10:43:11.190Z,280
2018-07-05T10:44:20.994Z,280
2018-07-05T10:45:30.809Z,285
2018-07-05T10:46:40.332Z,285
2018-07-05T10:47:50.123Z,285
2018-07-05T10:49:00.254Z,285
2018-07-05T10:50:10.056Z,285
2018-07-05T10:51:20.120Z,285
2018-07-05T10:52:29.910Z,285
2018-07-05T10:53:39.976Z,290
2018-07-05T10:54:49.577Z,290
2018-07-05T10:55:59.400Z,290
2018-07-05T10:57:09.214Z,290
2018-07-05T10:58:19.012Z,290
2018-07-05T10:59:28.834Z,290
2018-07-05T11:00:38.966Z,295
2018-07-05T11:01:48.770Z,295
2018-07-05T11:02:58.646Z,300
2018-07-05T11:04:08.446Z,300
2018-07-05T11:05:17.690Z,295
2018-07-05T11:06:27.268Z,295
2018-07-05T11:07:37.457Z,300
2018-07-05T11:08:47.277Z,300
2018-07-05T11:09:57.345Z,300
2018-07-05T11:11:06.888Z,300
2018-07-05T11:12:17.012Z,300
2018-07-05T11:13:27.080Z,305
2018-07-05T11:14:37.212Z,305
2018-07-05T11:15:47.144Z,305
2018-07-05T11:16:57.241Z,305
2018-07-05T11:18:06.841Z,305
2018-07-05T11:19:16.629Z,310
2018-07-05T11:20:26.436Z,310
2018-07-05T11:21:35.977Z,310
2018-07-05T11:22:45.498Z,320
2018-07-05T11:23:55.363Z,315
2018-07-05T11:25:04.615Z,315
2018-07-05T11:26:14.434Z,315
2018-07-05T11:27:24.526Z,320
2018-07-05T11:28:34.343Z,320
2018-07-05T11:29:44.212Z,320
2018-07-05T11:30:53.773Z,320
2018-07-05T11:32:03.317Z,320
2018-07-05T11:33:12.836Z,325
2018-07-05T11:34:22.910Z,330
2018-07-05T11:35:33.044Z,335
2018-07-05T11:36:42.836Z,335
2018-07-05T11:37:52.889Z,340
2018-07-05T11:39:02.965Z,395
2018-07-05T11:40:12.779Z,1575
2018-07-05T11:41:22.915Z,2595
2018-07-05T11:42:33.038Z,2745
2018-07-05T11:43:42.882Z,2810
2018-07-05T11:44:52.959Z,2785
2018-07-05T11:46:03.044Z,2750
2018-07-05T11:47:13.232Z,2960
2018-07-05T11:48:23.338Z,3180
2018-07-05T11:49:33.434Z,3050
2018-07-05T11:50:43.269Z,3030
2018-07-05T11:51:53.085Z,3030
2018-07-05T11:53:03.221Z,2990
2018-07-05T11:54:13.028Z,3110
2018-07-05T11:55:23.102Z,3020
2018-07-05T11:56:33.166Z,2980
2018-07-05T11:57:42.980Z,3170
2018-07-05T11:58:53.053Z,3005
2018-07-05T12:00:02.854Z,3060
2018-07-05T12:01:12.680Z,2885
2018-07-05T12:02:22.508Z,2855
2018-07-05T12:03:32.326Z,2875
2018-07-05T12:04:42.177Z,2910
2018-07-05T12:05:52.292Z,2945
2018-07-05T12:07:01.557Z,2875
2018-07-05T12:08:11.375Z,2780
2018-07-05T12:09:21.457Z,2645
2018-07-05T12:10:31.599Z,2640
2018-07-05T12:11:41.689Z,2600
2018-07-05T12:12:51.507Z,2790
2018-07-05T12:14:01.585Z,2675
2018-07-05T12:15:11.126Z,2585
2018-07-05T12:16:21.008Z,2565
2018-07-05T12:17:30.571Z,2830
2018-07-05T12:18:40.869Z,2935
2018-07-05T12:19:50.954Z,2865
2018-07-05T12:21:00.775Z,2885
2018-07-05T12:22:10.933Z,2760
2018-07-05T12:23:20.734Z,3030
2018-07-05T12:24:30.390Z,3000
2018-07-05T12:25:40.501Z,2975
2018-07-05T12:26:50.309Z,2975
2018-07-05T12:28:00.165Z,2915
2018-07-05T12:29:10.171Z,2760
2018-07-05T12:30:20.274Z,2775
2018-07-05T12:31:29.830Z,2800
2018-07-05T12:32:39.919Z,2980
2018-07-05T12:33:49.902Z,2980
2018-07-05T12:34:59.747Z,2885
2018-07-05T12:36:09.567Z,2820
2018-07-05T12:37:19.651Z,2815
2018-07-05T12:38:29.471Z,2600
2018-07-05T12:39:39.752Z,2640
2018-07-05T12:40:49.577Z,2760
2018-07-05T12:41:59.676Z,2775
2018-07-05T12:43:09.487Z,2990
2018-07-05T12:44:19.310Z,2855
2018-07-05T12:45:28.916Z,3000
2018-07-05T12:46:38.470Z,3065
2018-07-05T12:47:48.016Z,2960
2018-07-05T12:48:58.093Z,2980
2018-07-05T12:50:07.915Z,2990
2018-07-05T12:51:17.773Z,2990
2018-07-05T12:52:27.593Z,2945
2018-07-05T12:53:37.702Z,2880
2018-07-05T12:54:47.812Z,3005
2018-07-05T12:55:57.630Z,2865
2018-07-05T12:57:07.497Z,2865
2018-07-05T12:58:17.585Z,2860
2018-07-05T12:59:27.188Z,2885
2018-07-05T13:00:36.736Z,2660
2018-07-05T13:01:46.565Z,2670
2018-07-05T13:02:56.720Z,2865
2018-07-05T13:04:06.992Z,2605
2018-07-05T13:05:16.886Z,2580
2018-07-05T13:06:26.970Z,2495
2018-07-05T13:07:37.080Z,2455
2018-07-05T13:08:47.217Z,2245
2018-07-05T13:09:57.312Z,2070
2018-07-05T13:11:07.119Z,1990
2018-07-05T13:12:17.210Z,2015
2018-07-05T13:13:27.312Z,1945
2018-07-05T13:14:37.183Z,1920
2018-07-05T13:15:47.273Z,2040
2018-07-05T13:16:57.360Z,2125
2018-07-05T13:18:07.209Z,2360
2018-07-05T13:19:17.023Z,2875
2018-07-05T13:20:27.153Z,3180
2018-07-05T13:21:36.978Z,3175
2018-07-05T13:22:47.093Z,3590
2018-07-05T13:23:56.650Z,3625
2018-07-05T13:25:06.483Z,3420
2018-07-05T13:26:16.607Z,3380
2018-07-05T13:27:26.427Z,3535
2018-07-05T13:28:36.532Z,3545
2018-07-05T13:29:46.350Z,3420
2018-07-05T13:30:55.631Z,3515
2018-07-05T13:32:05.247Z,3820
2018-07-05T13:33:15.410Z,3680
2018-07-05T13:34:25.515Z,3440
2018-07-05T13:35:35.592Z,3560
2018-07-05T13:36:45.148Z,3745
2018-07-05T13:37:54.487Z,3730
2018-07-05T13:39:04.051Z,3705
2018-07-05T13:40:14.175Z,4035
2018-07-05T13:41:23.994Z,4260
2018-07-05T13:42:33.804Z,3815
2018-07-05T13:43:43.936Z,3540
2018-07-05T13:44:54.013Z,3795
2018-07-05T13:46:03.574Z,3600
2018-07-05T13:47:13.942Z,3545
2018-07-05T13:48:23.225Z,3755
2018-07-05T13:49:33.104Z,3755
2018-07-05T13:50:43.201Z,3730
2018-07-05T13:51:52.763Z,3590
2018-07-05T13:53:02.331Z,3585
2018-07-05T13:54:11.797Z,3525
2018-07-05T13:55:21.937Z,3285
2018-07-05T13:56:32.034Z,3270
2018-07-05T13:57:41.861Z,3715
2018-07-05T13:58:51.966Z,3615
2018-07-05T14:00:01.790Z,3420
2018-07-05T14:01:11.654Z,3280
2018-07-05T14:02:21.746Z,3375
2018-07-05T14:03:31.953Z,3520
2018-07-05T14:04:42.057Z,3640
2018-07-05T14:05:52.154Z,3710
2018-07-05T14:07:02.289Z,3540
2018-07-05T14:08:11.848Z,3525
2018-07-05T14:09:21.673Z,3680
2018-07-05T14:10:31.775Z,3700
2018-07-05T14:11:41.605Z,3560
2018-07-05T14:12:51.755Z,3435
2018-07-05T14:14:01.557Z,3530
2018-07-05T14:15:11.375Z,3520
2018-07-05T14:16:21.452Z,3450
2018-07-05T14:17:31.555Z,3485
2018-07-05T14:18:41.707Z,3405
2018-07-05T14:19:51.797Z,3460
2018-07-05T14:21:01.636Z,3435
2018-07-05T14:22:11.182Z,3525
2018-07-05T14:23:20.992Z,3415
2018-07-05T14:24:30.333Z,3325
2018-07-05T14:25:40.425Z,3325
2018-07-05T14:26:50.236Z,3230
2018-07-05T14:28:00.329Z,3145
2018-07-05T14:29:10.145Z,3180
2018-07-05T14:30:20.038Z,3165
2018-07-05T14:31:30.854Z,3155
2018-07-05T14:32:40.996Z,3090
2018-07-05T14:33:50.830Z,3160
2018-07-05T14:35:00.922Z,3160
2018-07-05T14:36:11.057Z,3085
2018-07-05T14:37:20.886Z,3165
2018-07-05T14:38:30.986Z,3220
2018-07-05T14:39:41.059Z,3150
2018-07-05T14:40:51.166Z,3110
2018-07-05T14:42:01.319Z,3250
2018-07-05T14:43:11.141Z,3230
2018-07-05T14:44:21.261Z,3030
2018-07-05T14:45:31.081Z,2985
2018-07-05T14:46:41.173Z,3035
2018-07-05T14:47:51.022Z,3115
2018-07-05T14:49:00.854Z,3035
2018-07-05T14:50:10.658Z,3120
2018-07-05T14:51:20.487Z,3105
2018-07-05T14:52:30.838Z,3005
2018-07-05T14:53:40.719Z,3105
2018-07-05T14:54:50.560Z,3140
2018-07-05T14:56:00.647Z,2925
2018-07-05T14:57:09.930Z,2930
2018-07-05T14:58:19.493Z,2775
2018-07-05T14:59:29.363Z,2690
2018-07-05T15:00:39.183Z,2830
2018-07-05T15:01:49.373Z,2950
2018-07-05T15:02:59.566Z,2865
2018-07-05T15:04:09.516Z,2795
2018-07-05T15:05:19.689Z,2885
2018-07-05T15:06:29.519Z,3030
2018-07-05T15:07:39.351Z,3020
2018-07-05T15:08:49.178Z,2985
2018-07-05T15:09:59.016Z,2995
2018-07-05T15:11:09.529Z,2920
2018-07-05T15:12:19.345Z,2915
2018-07-05T15:13:29.420Z,2955
2018-07-05T15:14:39.503Z,2850
2018-07-05T15:15:49.610Z,2760
2018-07-05T15:16:59.765Z,2785
2018-07-05T15:18:09.583Z,2900
2018-07-05T15:19:19.722Z,2960
2018-07-05T15:20:29.801Z,2945
2018-07-05T15:21:39.900Z,3010
2018-07-05T15:22:50.053Z,2905
2018-07-05T15:23:59.868Z,2875
2018-07-05T15:25:09.689Z,2975
2018-07-05T15:26:19.515Z,2955
2018-07-05T15:27:29.325Z,2865
2018-07-05T15:28:39.182Z,2760
2018-07-05T15:29:49.270Z,2675
2018-07-05T15:30:59.369Z,2865
2018-07-05T15:32:09.183Z,2970
2018-07-05T15:33:18.998Z,2855
2018-07-05T15:34:29.145Z,2690
2018-07-05T15:35:39.238Z,2825
2018-07-05T15:36:49.339Z,2890
2018-07-05T15:37:59.214Z,2755
2018-07-05T15:39:08.785Z,2680
2018-07-05T15:40:18.678Z,2790
2018-07-05T15:41:28.791Z,2760
2018-07-05T15:42:38.883Z,2715
2018-07-05T15:43:48.978Z,2790
2018-07-05T15:44:59.061Z,2885
2018-07-05T15:46:09.215Z,2895
2018-07-05T15:47:19.281Z,2785
2018-07-05T15:48:29.101Z,2680
2018-07-05T15:49:39.209Z,2615
2018-07-05T15:50:49.045Z,2650
2018-07-05T15:51:59.203Z,2730
2018-07-05T15:53:09.480Z,2735
2018-07-05T15:54:19.335Z,2700
2018-07-05T15:55:29.427Z,2725
2018-07-05T15:56:39.264Z,2665
2018-07-05T15:57:49.137Z,2520
2018-07-05T15:58:59.231Z,2520
2018-07-05T16:00:09.054Z,2520
2018-07-05T16:01:19.137Z,2550
2018-07-05T16:02:29.234Z,2585
2018-07-05T16:03:39.381Z,2615
2018-07-05T16:04:49.463Z,2565
2018-07-05T16:05:59.571Z,2500
2018-07-05T16:07:09.382Z,2505